Time;durP1;ratioP1;P1;durP2;ratioP2;P2;SDS_P1;SDS_P2;PMS_P1;PMS_P2;Temp;Humidity;BMP_temperature;BMP_pressure;BME280_temperature;BME280_humidity;BME280_pressure;Samples;Min_cycle;Max_cycle;Signal;HPM_P1;HPM_P2
2023/08/24 00:02:04;;;;;;;;;;;22.50;43.90;;;22.06;43.50;101491.53;12142192;19;19918;-85
2023/08/24 00:06:06;;;;;;;;;;;22.50;43.90;;;22.01;43.78;101489.31;12143018;19;20647;-85
2023/08/24 00:10:08;;;;;;;;;;;22.40;43.80;;;21.89;43.67;101477.13;12144087;19;20379;-85
2023/08/24 00:14:09;;;;;;;;;;;22.30;43.90;;;21.90;43.60;101486.81;12142912;19;20766;-85
2023/08/24 00:18:11;;;;;;;;;;;22.30;44.00;;;21.84;43.86;101479.38;12142168;19;19929;-85
2023/08/24 00:22:12;;;;;;;;;;;22.30;44.00;;;21.79;43.83;101482.47;12145227;19;19923;-85
2023/08/24 00:26:16;;;;;;;;;;;22.20;44.10;;;21.68;43.60;101469.28;12143061;19;19923;-85
2023/08/24 00:30:18;;;;;;;;;;;22.20;44.10;;;21.53;43.91;101462.72;12141425;19;20849;-85
2023/08/24 00:34:20;;;;;;;;;;;22.10;44.00;;;21.59;43.69;101464.81;12139088;19;20377;-85
2023/08/24 00:38:22;;;;;;;;;;;22.10;44.10;;;21.56;43.81;101460.59;12137977;19;19923;-86
2023/08/24 00:42:24;;;;;;;;;;;22.10;44.20;;;21.32;43.83;101434.38;12139417;19;20188;-85
2023/08/24 00:46:27;;;;;;;;;;;22.10;44.20;;;21.48;44.18;101464.94;12139028;19;19918;-85
2023/08/24 00:50:29;;;;;;;;;;;22.00;44.30;;;21.38;43.90;101465.75;12137474;19;20211;-85
2023/08/24 00:54:31;;;;;;;;;;;21.90;44.10;;;21.34;44.28;101460.84;12137379;19;20006;-85
2023/08/24 00:58:33;;;;;;;;;;;21.90;44.10;;;21.20;43.96;101451.44;12134247;19;20197;-85
2023/08/24 01:02:36;;;;;;;;;;;21.80;44.10;;;21.23;44.23;101468.91;12136764;19;20714;-85
2023/08/24 01:06:37;;;;;;;;;;;21.80;44.10;;;21.19;44.17;101471.81;12136691;19;20741;-85
2023/08/24 01:10:48;;;;;;;;;;;21.70;44.20;;;21.14;44.18;101466.09;12138024;19;19930;-85
2023/08/24 01:15:07;;;;;;;;;;;21.70;44.30;;;21.21;44.23;101482.31;12136557;19;20472;-85
2023/08/24 01:19:26;;;;;;;;;;;21.70;44.30;;;21.06;44.44;101460.59;12134041;19;19919;-85
2023/08/24 01:23:42;;;;;;;;;;;21.70;44.30;;;21.12;44.24;101470.69;12136115;19;19914;-85
2023/08/24 01:27:45;;;;;;;;;;;21.60;44.40;;;21.01;44.31;101462.84;12133314;19;19998;-85
2023/08/24 01:31:49;;;;;;;;;;;21.60;44.40;;;20.72;44.39;101428.22;12132928;19;21857;-85
2023/08/24 01:35:50;;;;;;;;;;;21.50;44.40;;;20.92;44.31;101466.28;12136747;19;20646;-85
2023/08/24 01:40:27;;;;;;;;;;;21.50;44.50;;;20.87;44.60;101463.19;12134793;19;20718;-85
2023/08/24 01:44:30;;;;;;;;;;;21.50;44.50;;;20.82;44.27;101462.75;12138016;19;20392;-85
2023/08/24 01:48:31;;;;;;;;;;;21.40;44.50;;;20.75;45.00;101459.78;12135677;19;19969;-85
2023/08/24 01:52:34;;;;;;;;;;;21.40;44.50;;;20.71;44.80;101440.66;12137153;19;20203;-85
2023/08/24 01:56:37;;;;;;;;;;;21.40;44.50;;;20.65;44.64;101443.81;12134594;19;20356;-85
2023/08/24 02:00:39;;;;;;;;;;;21.30;44.50;;;20.67;44.89;101447.19;12136284;19;20022;-85
2023/08/24 02:04:41;;;;;;;;;;;21.30;44.80;;;20.62;44.69;101453.88;12133446;19;20663;-85
2023/08/24 02:08:44;;;;;;;;;;;21.30;44.70;;;20.64;44.95;101452.75;12135940;19;20206;-85
2023/08/24 02:12:46;;;;;;;;;;;21.20;44.70;;;20.54;44.54;101442.09;12137118;19;19964;-85
2023/08/24 02:16:48;;;;;;;;;;;21.20;44.90;;;20.47;44.92;101430.31;12130643;19;19926;-85
2023/08/24 02:20:50;;;;;;;;;;;21.10;44.70;;;20.45;44.82;101448.16;12138569;19;20784;-85
2023/08/24 02:24:52;;;;;;;;;;;21.10;44.80;;;20.43;45.16;101450.09;12148798;19;20313;-85
2023/08/24 02:28:54;;;;;;;;;;;21.00;45.10;;;20.27;44.86;101432.00;12147004;19;19923;-85
2023/08/24 02:32:56;;;;;;;;;;;21.00;45.20;;;20.34;45.02;101453.53;12151105;19;19927;-85
2023/08/24 02:36:57;;;;;;;;;;;20.90;45.20;;;20.30;45.32;101444.16;12142593;19;20341;-85
2023/08/24 02:41:06;;;;;;;;;;;20.90;45.30;;;20.27;45.28;101445.25;12149184;19;19958;-85
2023/08/24 02:45:08;;;;;;;;;;;20.80;45.20;;;20.26;45.20;101448.88;12142685;19;20022;-85
2023/08/24 02:49:10;;;;;;;;;;;20.80;45.20;;;20.15;44.90;101438.34;12149676;19;19926;-85
2023/08/24 02:53:12;;;;;;;;;;;20.80;45.40;;;20.10;44.93;101421.97;12146477;19;19921;-85
2023/08/24 02:57:13;;;;;;;;;;;20.80;45.50;;;20.16;45.35;101442.66;12145161;19;20455;-85
2023/08/24 03:01:15;;;;;;;;;;;20.80;45.60;;;20.15;45.35;101441.00;12145212;19;20012;-85
2023/08/24 03:05:17;;;;;;;;;;;20.70;45.70;;;20.11;45.20;101440.41;12143555;19;19938;-85
2023/08/24 03:09:18;;;;;;;;;;;20.80;45.70;;;20.14;45.66;101449.91;12146009;19;19915;-85
2023/08/24 03:13:20;;;;;;;;;;;20.70;45.70;;;20.07;45.44;101438.16;12146129;19;19926;-85
2023/08/24 03:17:23;;;;;;;;;;;20.70;45.70;;;20.13;45.37;101445.59;12140763;19;19930;-85
2023/08/24 03:21:24;;;;;;;;;;;20.80;45.70;;;20.00;45.53;101423.72;12143327;19;20535;-85
2023/08/24 03:25:26;;;;;;;;;;;20.80;45.90;;;20.11;45.51;101444.88;12140992;19;19919;-85
2023/08/24 03:29:28;;;;;;;;;;;20.80;46.20;;;20.07;45.74;101435.50;12140397;19;20022;-85
2023/08/24 03:33:30;;;;;;;;;;;20.80;45.80;;;20.11;45.42;101445.69;12138123;19;20748;-85
2023/08/24 03:37:32;;;;;;;;;;;20.80;45.80;;;20.13;45.57;101442.94;12137758;19;19926;-85
2023/08/24 03:41:34;;;;;;;;;;;20.80;45.90;;;20.05;45.84;101432.97;12142247;19;19949;-85
2023/08/24 03:45:37;;;;;;;;;;;20.80;45.90;;;20.10;45.88;101436.06;12139762;19;19923;-85
2023/08/24 03:49:42;;;;;;;;;;;20.80;46.00;;;20.13;45.73;101442.09;12144037;19;19925;-85
2023/08/24 03:53:44;;;;;;;;;;;20.80;46.10;;;20.01;45.98;101414.78;12140779;19;19983;-85
2023/08/24 03:57:46;;;;;;;;;;;20.80;46.10;;;20.06;45.91;101425.84;12138743;19;20225;-85
2023/08/24 04:01:48;;;;;;;;;;;20.80;46.10;;;20.01;46.00;101418.31;12141788;19;19943;-85
2023/08/24 04:05:50;;;;;;;;;;;20.90;46.60;;;20.13;45.92;101429.66;12139589;19;19915;-85
2023/08/24 04:09:51;;;;;;;;;;;20.80;46.30;;;20.10;45.97;101420.16;12139204;19;20332;-85
2023/08/24 04:18:12;;;;;;;;;;;20.90;46.30;;;20.08;45.97;101423.91;12139873;19;19923;-85
2023/08/24 04:22:14;;;;;;;;;;;20.80;46.10;;;20.05;46.10;101424.19;12141020;19;19930;-85
2023/08/24 04:26:16;;;;;;;;;;;20.80;46.20;;;20.09;46.20;101425.59;12141016;19;20211;-85
2023/08/24 04:30:17;;;;;;;;;;;20.80;46.30;;;20.06;46.28;101428.50;12144360;19;20647;-85
2023/08/24 04:34:19;;;;;;;;;;;20.80;46.60;;;20.02;46.47;101419.13;12136898;19;20179;-85
2023/08/24 04:38:21;;;;;;;;;;;20.80;46.50;;;20.11;46.19;101434.25;12142291;19;20033;-85
2023/08/24 04:42:22;;;;;;;;;;;20.90;46.80;;;20.05;46.52;101418.88;12145673;19;20263;-85
2023/08/24 04:46:23;;;;;;;;;;;20.90;46.70;;;20.05;46.55;101413.56;12150152;19;19947;-85
2023/08/24 04:50:25;;;;;;;;;;;20.90;46.80;;;20.05;46.36;101414.41;12154535;19;19915;-85
2023/08/24 04:54:27;;;;;;;;;;;20.90;46.60;;;20.17;46.33;101428.47;12145632;19;19930;-85
2023/08/24 04:58:28;;;;;;;;;;;20.90;46.90;;;20.21;46.82;101434.34;12145388;19;20331;-85
2023/08/24 05:02:29;;;;;;;;;;;20.90;47.20;;;20.10;46.87;101411.38;12142955;19;19922;-85
2023/08/24 05:06:31;;;;;;;;;;;21.00;47.00;;;20.13;46.94;101410.28;12145663;19;19930;-85
2023/08/24 05:10:33;;;;;;;;;;;21.00;47.00;;;20.31;46.73;101443.19;12145166;19;20355;-85
2023/08/24 05:14:35;;;;;;;;;;;21.10;47.10;;;20.31;46.66;101437.91;12146176;19;20882;-87
2023/08/24 05:18:36;;;;;;;;;;;21.10;47.00;;;20.38;46.96;101440.84;12145380;19;19927;-85
2023/08/24 05:22:39;;;;;;;;;;;21.20;47.30;;;20.37;47.08;101437.34;12141243;19;19922;-85
2023/08/24 05:26:40;;;;;;;;;;;21.20;47.20;;;20.44;47.16;101440.31;12137369;19;20308;-86
2023/08/24 05:30:42;;;;;;;;;;;21.20;47.20;;;20.50;46.72;101445.97;12140513;19;19923;-86
2023/08/24 05:34:45;;;;;;;;;;;21.30;47.20;;;20.50;46.99;101435.34;12144564;19;19947;-88
2023/08/24 05:38:47;;;;;;;;;;;21.40;47.20;;;20.57;47.20;101440.97;12141995;19;19937;-86
2023/08/24 05:42:48;;;;;;;;;;;21.40;47.20;;;20.59;47.24;101441.69;12148599;19;20009;-86
2023/08/24 05:46:50;;;;;;;;;;;21.40;47.20;;;20.55;47.18;101425.22;12141274;19;19933;-85
2023/08/24 05:50:51;;;;;;;;;;;21.40;47.30;;;20.65;47.14;101435.00;12143084;19;19919;-86
2023/08/24 05:54:53;;;;;;;;;;;21.50;47.30;;;20.67;47.44;101435.72;12140356;19;20016;-85
2023/08/24 05:58:57;;;;;;;;;;;21.50;47.40;;;20.75;47.11;101444.69;12165294;19;20936;-85
2023/08/24 06:02:58;;;;;;;;;;;21.60;47.80;;;20.79;47.41;101434.66;12150624;19;20659;-84
2023/08/24 06:07:00;;;;;;;;;;;21.70;47.90;;;20.96;47.42;101442.00;12151502;19;19919;-86
2023/08/24 06:11:02;;;;;;;;;;;21.80;48.10;;;20.97;47.46;101414.44;12154431;19;19919;-85
2023/08/24 06:15:04;;;;;;;;;;;21.90;48.20;;;21.23;47.89;101432.56;12149203;19;19931;-85
2023/08/24 06:19:06;;;;;;;;;;;22.10;48.40;;;21.37;47.43;101426.88;12147225;19;20018;-85
2023/08/24 06:23:07;;;;;;;;;;;22.30;48.20;;;21.59;47.81;101438.22;12152769;19;20726;-85
2023/08/24 06:27:09;;;;;;;;;;;22.40;48.00;;;21.64;47.36;101420.03;12148766;19;19919;-86
2023/08/24 06:31:11;;;;;;;;;;;22.60;47.90;;;21.84;47.52;101435.00;12149079;19;19922;-86
2023/08/24 06:35:15;;;;;;;;;;;22.80;48.50;;;21.88;47.59;101420.44;12149527;19;20584;-85
2023/08/24 06:39:17;;;;;;;;;;;22.90;48.10;;;22.03;47.59;101422.66;12139346;19;20173;-85
2023/08/24 06:43:18;;;;;;;;;;;23.10;47.80;;;22.09;47.89;101407.00;12150569;19;19923;-86
2023/08/24 06:47:20;;;;;;;;;;;23.20;47.50;;;22.28;47.94;101429.25;12144042;19;19927;-86
2023/08/24 06:51:22;;;;;;;;;;;23.30;47.40;;;22.35;47.59;101427.66;12150027;19;20010;-84
2023/08/24 06:55:23;;;;;;;;;;;23.40;47.30;;;22.46;47.97;101424.84;12147029;19;19927;-84
2023/08/24 06:59:25;;;;;;;;;;;23.50;47.60;;;22.59;47.98;101437.00;12145030;19;20538;-84
2023/08/24 07:03:27;;;;;;;;;;;23.70;47.20;;;22.66;47.63;101443.44;12148667;19;19951;-85
2023/08/24 07:07:28;;;;;;;;;;;23.70;47.10;;;22.79;47.69;101449.25;12141826;19;19919;-84
2023/08/24 07:11:30;;;;;;;;;;;23.80;47.00;;;22.88;47.86;101442.22;12146262;19;19918;-83
2023/08/24 07:15:34;;;;;;;;;;;23.90;47.00;;;23.01;47.55;101447.19;12142427;19;19936;-83
2023/08/24 07:19:35;;;;;;;;;;;24.00;47.00;;;23.01;47.49;101447.19;12142520;19;20323;-84
2023/08/24 07:23:37;;;;;;;;;;;24.10;47.10;;;23.16;47.79;101451.06;12143190;19;20368;-84
2023/08/24 07:27:38;;;;;;;;;;;24.20;47.20;;;23.26;47.45;101449.19;12134873;19;19934;-83
2023/08/24 07:31:40;;;;;;;;;;;24.30;47.10;;;23.47;47.85;101458.72;12143191;19;19934;-84
2023/08/24 07:35:42;;;;;;;;;;;24.40;47.10;;;23.58;47.61;101446.00;12141669;19;20473;-83
2023/08/24 07:39:43;;;;;;;;;;;24.60;47.20;;;23.73;48.17;101438.31;12142394;19;20181;-83
2023/08/24 07:43:44;;;;;;;;;;;24.80;47.40;;;23.90;48.05;101427.78;12145082;19;20030;-83
2023/08/24 07:47:46;;;;;;;;;;;25.00;47.20;;;24.10;48.14;101439.97;12142598;19;20176;-83
2023/08/24 07:51:47;;;;;;;;;;;25.10;47.30;;;24.19;48.16;101422.19;12148423;19;19927;-83
2023/08/24 07:55:49;;;;;;;;;;;25.40;47.20;;;24.33;48.09;101410.06;12139592;19;19927;-82
2023/08/24 07:59:50;;;;;;;;;;;25.60;47.10;;;24.73;47.92;101445.06;12142477;19;19934;-83
2023/08/24 08:03:51;;;;;;;;;;;25.80;47.00;;;24.86;48.25;101419.72;12146879;19;20262;-83
2023/08/24 08:07:53;;;;;;;;;;;26.00;46.90;;;25.20;47.92;101445.59;12140090;19;20617;-83
2023/08/24 08:11:54;;;;;;;;;;;26.30;47.00;;;25.30;47.78;101427.56;12143926;19;19934;-84
2023/08/24 08:16:04;;;;;;;;;;;26.50;46.90;;;25.64;48.24;101440.00;12135659;19;19926;-81
2023/08/24 08:20:06;;;;;;;;;;;26.70;46.40;;;25.78;47.77;101432.13;12138544;19;20398;-82
2023/08/24 08:24:07;;;;;;;;;;;27.00;46.60;;;26.01;48.06;101435.00;12145006;19;20776;-82
2023/08/24 08:28:09;;;;;;;;;;;27.20;46.50;;;26.20;48.10;101439.16;12142037;19;19929;-82
2023/08/24 08:32:12;;;;;;;;;;;27.40;46.10;;;26.38;47.91;101447.00;12140571;19;19930;-81
2023/08/24 08:36:13;;;;;;;;;;;27.50;46.00;;;26.49;47.73;101435.94;12135151;19;19951;-81
2023/08/24 08:40:17;;;;;;;;;;;27.70;45.60;;;26.59;47.57;101424.19;12133874;19;19935;-81
2023/08/24 08:44:19;;;;;;;;;;;27.80;45.70;;;26.66;47.38;101409.09;12134035;19;20525;-81
2023/08/24 08:48:21;;;;;;;;;;;27.90;45.70;;;26.77;47.49;101416.75;12131475;19;20448;-81
2023/08/24 08:52:25;;;;;;;;;;;28.00;45.50;;;26.81;47.67;101406.50;12136941;19;20869;-81
2023/08/24 08:56:26;;;;;;;;;;;28.10;45.50;;;26.89;47.07;101399.25;12133005;19;19929;-81
2023/08/24 09:00:28;;;;;;;;;;;28.10;45.70;;;26.93;47.13;101405.97;12135820;19;19922;-82
2023/08/24 09:04:32;;;;;;;;;;;28.20;44.90;;;26.97;47.13;101397.56;12134255;19;19923;-81
2023/08/24 09:08:34;;;;;;;;;;;28.10;45.20;;;27.02;46.91;101404.06;12133438;19;19923;-83
2023/08/24 09:12:35;;;;;;;;;;;28.20;45.30;;;27.01;47.11;101386.31;12133629;19;20971;-82
2023/08/24 09:16:37;;;;;;;;;;;28.20;45.40;;;27.04;47.00;101391.31;12132726;19;19915;-82
2023/08/24 09:20:38;;;;;;;;;;;28.20;45.10;;;27.11;46.76;101388.75;12132721;19;19939;-81
2023/08/24 09:24:40;;;;;;;;;;;28.10;44.10;;;27.13;46.75;101387.56;12132869;19;20522;-85
2023/08/24 09:28:45;;;;;;;;;;;28.20;44.90;;;27.18;46.54;101383.56;12137204;19;19922;-81
2023/08/24 09:32:46;;;;;;;;;;;28.20;44.00;;;27.18;46.36;101373.66;12142890;19;19949;-81
2023/08/24 09:36:48;;;;;;;;;;;28.20;44.90;;;27.26;46.67;101378.16;12143324;19;19959;-82
2023/08/24 09:40:56;;;;;;;;;;;28.20;44.40;;;27.28;46.51;101368.91;12148509;19;20667;-82
2023/08/24 09:45:04;;;;;;;;;;;28.30;44.90;;;27.27;46.41;101356.50;12146879;19;19926;-82
2023/08/24 09:49:06;;;;;;;;;;;28.30;44.80;;;27.38;46.44;101368.66;12140728;19;19927;-82
2023/08/24 09:53:11;;;;;;;;;;;28.30;44.30;;;27.40;46.49;101357.75;12143463;19;19922;-81
2023/08/24 09:57:14;;;;;;;;;;;28.40;44.70;;;27.41;46.35;101348.69;12138537;19;19922;-82
2023/08/24 10:01:17;;;;;;;;;;;28.40;44.80;;;27.51;46.42;101349.28;12137601;19;20792;-82
2023/08/24 10:05:25;;;;;;;;;;;28.40;44.60;;;27.57;45.97;101352.09;12141127;19;20444;-82
2023/08/24 10:09:31;;;;;;;;;;;28.50;44.60;;;27.66;46.52;101347.47;12137528;19;19923;-81
2023/08/24 10:13:41;;;;;;;;;;;28.60;44.80;;;27.81;46.53;101342.13;12135305;19;20452;-81
2023/08/24 10:17:43;;;;;;;;;;;28.70;43.80;;;27.94;46.18;101350.41;12139810;19;20363;-82
2023/08/24 10:21:45;;;;;;;;;;;28.80;44.10;;;28.02;46.12;101330.69;12151756;19;20006;-82
2023/08/24 10:25:50;;;;;;;;;;;29.00;44.00;;;28.14;46.16;101328.34;12140542;19;20242;-82
2023/08/24 10:29:52;;;;;;;;;;;29.10;43.10;;;28.31;46.07;101334.41;12142755;19;20153;-82
2023/08/24 10:33:54;;;;;;;;;;;29.30;43.70;;;28.42;45.86;101337.44;12145459;19;20404;-82
2023/08/24 10:38:01;;;;;;;;;;;29.30;43.20;;;28.45;46.06;101318.28;12124171;19;19945;-84
2023/08/24 10:42:02;;;;;;;;;;;29.50;43.10;;;28.67;45.78;101332.59;12124429;19;20038;-82
2023/08/24 10:46:10;;;;;;;;;;;29.60;43.20;;;28.77;45.48;101323.41;12127677;19;19930;-82
2023/08/24 10:50:13;;;;;;;;;;;29.70;43.60;;;28.86;45.53;101328.47;12127667;19;20674;-83
2023/08/24 10:54:15;;;;;;;;;;;29.80;43.70;;;28.99;45.72;101335.00;12123586;19;19927;-82
2023/08/24 10:58:17;;;;;;;;;;;29.90;41.50;;;29.10;45.70;101331.84;12123591;19;19918;-82
2023/08/24 11:02:19;;;;;;;;;;;30.10;43.50;;;29.19;45.21;101321.78;12122187;19;19926;-82
2023/08/24 11:06:22;;;;;;;;;;;30.20;43.20;;;29.31;45.51;101325.63;12121470;19;20008;-83
2023/08/24 11:10:25;;;;;;;;;;;30.30;42.80;;;29.45;45.30;101331.94;12125657;19;19972;-82
2023/08/24 11:14:27;;;;;;;;;;;30.40;42.80;;;29.56;45.08;101317.97;12124870;19;19918;-82
2023/08/24 11:18:29;;;;;;;;;;;30.50;42.80;;;29.68;44.78;101310.22;12119043;19;19927;-82
2023/08/24 11:22:31;;;;;;;;;;;30.60;43.00;;;29.68;44.84;101272.53;12121538;19;19944;-82
2023/08/24 11:26:34;;;;;;;;;;;30.70;42.90;;;29.88;44.93;101278.03;12122367;19;19932;-82
2023/08/24 11:30:36;;;;;;;;;;;30.80;43.00;;;29.96;44.84;101269.78;12120544;19;19915;-82
2023/08/24 11:34:38;;;;;;;;;;;30.90;42.80;;;30.08;44.59;101278.13;12129985;19;20672;-81
2023/08/24 11:38:42;;;;;;;;;;;31.00;42.70;;;30.16;44.80;101270.72;12131494;19;19958;-82
2023/08/24 11:42:44;;;;;;;;;;;31.10;43.10;;;30.25;44.48;101262.50;12132423;19;19918;-82
2023/08/24 11:46:45;;;;;;;;;;;31.20;43.30;;;30.36;44.54;101254.66;12133038;19;19921;-82
2023/08/24 11:50:48;;;;;;;;;;;31.30;43.10;;;30.45;44.58;101235.59;12128489;19;19927;-81
2023/08/24 11:54:51;;;;;;;;;;;31.40;43.10;;;30.56;44.50;101238.50;12130833;19;19926;-82
2023/08/24 11:58:53;;;;;;;;;;;31.50;42.80;;;30.58;44.38;101217.56;12129813;19;19923;-82
2023/08/24 12:02:55;;;;;;;;;;;31.60;42.00;;;30.67;44.15;101207.41;12131134;19;19930;-82
2023/08/24 12:06:56;;;;;;;;;;;31.60;41.60;;;30.67;43.76;101203.91;12125041;19;20018;-82
2023/08/24 12:10:58;;;;;;;;;;;31.70;42.70;;;30.85;44.22;101229.25;12131305;19;19922;-82
2023/08/24 12:15:00;;;;;;;;;;;31.80;42.20;;;30.85;44.03;101209.56;12129870;19;20006;-82
2023/08/24 12:19:07;;;;;;;;;;;31.80;42.60;;;30.95;43.75;101209.97;12112773;19;20342;-81
2023/08/24 12:23:10;;;;;;;;;;;31.90;42.70;;;31.07;44.00;101227.19;12111261;19;20767;-82
2023/08/24 12:27:19;;;;;;;;;;;32.00;42.60;;;31.13;43.51;101220.13;12112914;19;19930;-83
2023/08/24 12:31:26;;;;;;;;;;;32.00;41.80;;;31.21;43.60;101224.47;12119956;19;20682;-82
2023/08/24 12:35:28;;;;;;;;;;;32.10;42.10;;;31.15;43.51;101193.75;12116330;19;19933;-83
2023/08/24 12:39:36;;;;;;;;;;;32.10;40.20;;;31.20;43.51;101191.28;12117776;19;20986;-82
2023/08/24 12:43:38;;;;;;;;;;;32.10;41.90;;;31.27;43.35;101186.69;12119194;19;19930;-82
2023/08/24 12:47:40;;;;;;;;;;;32.10;42.20;;;31.34;43.03;101191.25;12114139;19;20750;-83
2023/08/24 12:51:41;;;;;;;;;;;32.20;41.90;;;31.37;43.40;101190.84;12118574;19;19918;-82
2023/08/24 12:55:43;;;;;;;;;;;32.20;40.80;;;31.23;43.28;101154.94;12116381;19;19925;-83
2023/08/24 12:59:46;;;;;;;;;;;32.20;42.00;;;31.40;43.07;101160.72;12110415;19;20370;-81
2023/08/24 13:03:48;;;;;;;;;;;32.20;41.90;;;31.44;43.09;101164.69;12108778;19;19930;-81
2023/08/24 13:07:50;;;;;;;;;;;32.30;40.80;;;31.46;43.07;101158.03;12107687;19;20372;-80
2023/08/24 13:11:52;;;;;;;;;;;32.30;41.50;;;31.49;42.54;101144.09;12107305;19;19938;-81
2023/08/24 13:15:54;;;;;;;;;;;32.30;40.90;;;31.53;42.68;101139.09;12108087;19;19951;-81
2023/08/24 13:19:55;;;;;;;;;;;32.30;40.00;;;31.57;42.42;101132.25;12105732;19;19930;-81
2023/08/24 13:23:57;;;;;;;;;;;32.40;40.60;;;31.55;42.60;101112.72;12110218;19;19934;-81
2023/08/24 13:27:59;;;;;;;;;;;32.40;41.60;;;31.60;42.75;101101.28;12103519;19;19930;-81
2023/08/24 13:32:01;;;;;;;;;;;32.40;41.30;;;31.71;42.63;101112.22;12104072;19;19923;-80
2023/08/24 13:36:02;;;;;;;;;;;32.50;41.60;;;31.73;42.55;101103.91;12105443;19;19927;-80
2023/08/24 13:40:05;;;;;;;;;;;32.50;40.70;;;31.78;42.30;101105.97;12110136;19;19922;-81
2023/08/24 13:44:06;;;;;;;;;;;32.50;40.70;;;31.78;42.16;101093.28;12105082;19;20365;-81
2023/08/24 13:48:08;;;;;;;;;;;32.60;40.70;;;31.77;41.96;101074.59;12109489;19;20701;-82
2023/08/24 13:52:09;;;;;;;;;;;32.60;40.90;;;31.85;42.23;101069.75;12106049;19;20647;-81
2023/08/24 13:56:10;;;;;;;;;;;32.60;41.10;;;31.81;41.82;101056.91;12107938;19;20034;-81
2023/08/24 14:00:12;;;;;;;;;;;32.60;41.20;;;31.88;42.09;101063.09;12100237;19;19918;-81
2023/08/24 14:04:14;;;;;;;;;;;32.60;40.80;;;31.91;41.78;101068.06;12102453;19;19923;-81
2023/08/24 14:08:15;;;;;;;;;;;32.60;40.80;;;31.94;42.00;101056.84;12106422;19;19939;-81
2023/08/24 14:12:17;;;;;;;;;;;32.60;40.00;;;31.93;41.46;101045.22;12105741;19;20765;-81
2023/08/24 14:16:19;;;;;;;;;;;32.70;39.80;;;31.92;41.64;101024.66;12102744;19;19922;-81
2023/08/24 14:20:21;;;;;;;;;;;32.70;41.00;;;32.02;41.56;101026.03;12110722;19;19927;-81
2023/08/24 14:24:22;;;;;;;;;;;32.70;40.70;;;32.05;41.29;101025.59;12118701;19;19923;-81
2023/08/24 14:28:24;;;;;;;;;;;32.70;40.90;;;32.05;41.24;101031.81;12117688;19;20398;-81
2023/08/24 14:32:26;;;;;;;;;;;32.80;39.70;;;32.02;41.04;101024.16;12115300;19;19927;-81
2023/08/24 14:36:29;;;;;;;;;;;32.80;40.60;;;32.00;41.22;101015.47;12115761;19;20209;-82
2023/08/24 14:40:30;;;;;;;;;;;32.70;40.80;;;32.03;40.95;101016.88;12113324;19;20286;-81
2023/08/24 14:44:33;;;;;;;;;;;32.70;40.70;;;32.05;41.00;101012.91;12115658;19;20775;-80
2023/08/24 14:48:35;;;;;;;;;;;32.70;40.60;;;32.06;41.01;101028.09;12114774;19;19918;-81
2023/08/24 14:52:38;;;;;;;;;;;32.70;39.10;;;32.07;41.04;101029.75;12115973;19;20227;-80
2023/08/24 14:56:39;;;;;;;;;;;32.70;40.60;;;32.08;41.01;101044.94;12110825;19;20720;-81
2023/08/24 15:00:41;;;;;;;;;;;32.70;40.50;;;32.08;41.13;101053.03;12112255;19;19927;-81
2023/08/24 15:04:42;;;;;;;;;;;32.80;40.50;;;32.09;40.91;101057.38;12113629;19;19927;-81
2023/08/24 15:08:44;;;;;;;;;;;32.70;40.40;;;32.05;40.88;101047.22;12116331;19;19939;-81
2023/08/24 15:12:46;;;;;;;;;;;32.70;40.60;;;32.09;40.48;101053.84;12113954;19;19961;-81
2023/08/24 15:16:48;;;;;;;;;;;32.70;40.70;;;32.03;40.63;101046.59;12112674;19;19919;-81
2023/08/24 15:20:49;;;;;;;;;;;32.70;40.60;;;32.14;41.11;101056.72;12110591;19;19933;-81
2023/08/24 15:24:50;;;;;;;;;;;32.60;40.40;;;32.16;40.47;101047.34;12117987;19;19951;-81
2023/08/24 15:29:09;;;;;;;;;;;32.80;40.60;;;32.16;40.80;101047.34;12115970;19;20814;-80
2023/08/24 15:33:11;;;;;;;;;;;32.80;40.10;;;32.18;40.33;101053.34;12116044;19;20658;-80
2023/08/24 15:37:12;;;;;;;;;;;32.80;39.70;;;32.19;40.17;101040.69;12110343;19;19923;-81
2023/08/24 15:41:13;;;;;;;;;;;32.80;40.50;;;32.17;40.44;101035.50;12112558;19;19938;-80
2023/08/24 15:45:15;;;;;;;;;;;32.80;40.30;;;32.22;40.38;101026.72;12111264;19;20021;-81
2023/08/24 15:49:17;;;;;;;;;;;32.80;40.10;;;32.16;40.49;101003.25;12110400;19;20351;-80
2023/08/24 15:53:18;;;;;;;;;;;32.80;40.50;;;32.24;40.34;101007.56;12108074;19;19943;-81
2023/08/24 15:57:20;;;;;;;;;;;32.80;40.40;;;32.24;40.05;101002.16;12110318;19;19957;-81
2023/08/24 16:01:22;;;;;;;;;;;32.80;40.20;;;31.96;40.28;100949.41;12112203;19;19923;-81
2023/08/24 16:05:24;;;;;;;;;;;32.80;40.30;;;32.19;40.19;100986.63;12106984;19;19953;-81
2023/08/24 16:09:25;;;;;;;;;;;32.80;40.10;;;32.23;39.91;100995.13;12109532;19;19952;-81
2023/08/24 16:13:27;;;;;;;;;;;32.80;40.10;;;32.17;40.01;100994.94;12111364;19;19923;-81
2023/08/24 16:17:29;;;;;;;;;;;32.80;40.30;;;32.16;39.86;100987.91;12107780;19;19936;-81
2023/08/24 16:21:31;;;;;;;;;;;32.70;40.40;;;32.12;40.23;100983.16;12106134;19;20434;-81
2023/08/24 16:25:33;;;;;;;;;;;32.70;40.40;;;32.15;39.69;100990.81;12105347;19;20670;-81
2023/08/24 16:29:35;;;;;;;;;;;32.70;40.40;;;32.10;39.93;100969.03;12108825;19;20837;-81
2023/08/24 16:33:36;;;;;;;;;;;32.70;40.50;;;32.15;39.98;100975.41;12102938;19;19923;-82
2023/08/24 16:37:38;;;;;;;;;;;32.70;40.50;;;32.13;39.70;100974.81;12112073;19;20689;-82
2023/08/24 16:41:40;;;;;;;;;;;32.70;40.10;;;32.09;39.82;100970.91;12114892;19;20284;-83
2023/08/24 16:45:41;;;;;;;;;;;32.60;40.40;;;32.07;39.97;100951.38;12117973;19;20797;-83
2023/08/24 16:49:43;;;;;;;;;;;32.60;40.50;;;31.99;39.77;100953.53;12111876;19;19923;-83
2023/08/24 16:53:45;;;;;;;;;;;32.50;40.50;;;31.92;39.55;100951.72;12112082;19;20730;-83
2023/08/24 16:57:47;;;;;;;;;;;32.40;40.70;;;31.76;39.91;100946.84;12110235;19;19923;-83
2023/08/24 17:01:49;;;;;;;;;;;32.40;41.00;;;31.59;39.66;100941.13;12112722;19;19927;-83
2023/08/24 17:05:50;;;;;;;;;;;32.30;41.10;;;31.49;39.81;100951.59;12108182;19;19919;-83
2023/08/24 17:09:52;;;;;;;;;;;32.10;41.10;;;31.50;39.58;100967.56;12114271;19;20720;-83
2023/08/24 17:13:53;;;;;;;;;;;32.00;41.50;;;31.44;40.00;100959.50;12113855;19;19929;-82
2023/08/24 17:17:57;;;;;;;;;;;31.90;41.30;;;31.30;39.92;100953.34;12107030;19;19956;-83
2023/08/24 17:21:58;;;;;;;;;;;31.80;41.50;;;31.21;40.08;100946.53;12110115;19;19962;-83
2023/08/24 17:26:00;;;;;;;;;;;31.70;41.40;;;31.16;40.05;100968.75;12111441;19;19926;-82
2023/08/24 17:30:03;;;;;;;;;;;31.60;41.40;;;31.06;39.81;100952.22;12112314;19;19923;-82
2023/08/24 17:34:05;;;;;;;;;;;31.50;41.50;;;31.02;39.89;100957.19;12109826;19;19934;-82
2023/08/24 17:38:06;;;;;;;;;;;31.40;41.50;;;30.92;39.85;100950.59;12111119;19;19915;-83
2023/08/24 17:42:08;;;;;;;;;;;31.30;41.50;;;30.82;40.21;100945.66;12110171;19;19927;-83
2023/08/24 17:46:10;;;;;;;;;;;31.20;41.50;;;30.68;40.18;100927.81;12103614;19;20295;-83
2023/08/24 17:50:12;;;;;;;;;;;31.00;41.30;;;30.56;40.23;100928.50;12111255;19;20034;-81
2023/08/24 17:54:13;;;;;;;;;;;30.90;41.30;;;30.36;39.88;100907.00;12127154;19;20827;-82
2023/08/24 17:58:14;;;;;;;;;;;30.80;41.30;;;30.31;40.22;100925.66;12127610;19;20708;-81
2023/08/24 18:02:16;;;;;;;;;;;30.70;41.30;;;30.18;40.31;100933.72;12128861;19;19928;-81
2023/08/24 18:06:17;;;;;;;;;;;30.60;41.60;;;30.03;39.93;100916.94;12129181;19;20780;-81
2023/08/24 18:10:19;;;;;;;;;;;30.40;41.40;;;29.97;40.30;100924.00;12128322;19;19937;-82
2023/08/24 18:14:20;;;;;;;;;;;30.30;41.50;;;29.90;40.02;100942.03;12116187;19;20415;-82